Mauléon Airport

LFJB · Deux-Sèvres, Nouvelle-Aquitaine, Frankrijk

METAR historie LFJB · Mauléon Airport

Hieronder zie je METAR's van de afgelopen dagen. Kies een jaar om door oudere METAR's te bladeren, vanaf het jaar 2007.

19 mei 2024

Tijd Code Weer Temp. Zicht Plafond Wind METAR/SPECI
04:30
L
10 °C 200 m - Var Var 1 kt METAR LFRI 190230Z AUTO VRB01KT 6000 0200 R28/P2000 BCFG NSC 10/10 Q1012
04:00
L
10 °C 400 m - 360° 360° 0 kt METAR LFRI 190200Z AUTO 00000KT 2600 0400 R28/P2000 BCFG NSC 10/10 Q1012
03:30
L
11 °C 450 m - 360° 360° 0 kt METAR LFRI 190130Z AUTO 00000KT 0450 R28/0500D FG NSC 11/11 Q1013
03:00
L
10 °C 400 m - 300° 300° 2 kt METAR LFRI 190100Z AUTO 30002KT 0500 0400 R28/0650D FG FEW001 SCT220 10/09 Q1013
02:30
L
11 °C 550 m - Var Var 2 kt METAR LFRI 190030Z AUTO VRB02KT 0700 0550 R28/0900U FG NSC 11/11 Q1013
02:00
M
11 °C 7 km - 270° 270° 3 kt METAR LFRI 190000Z AUTO 27003KT 7000 NSC 11/11 Q1013
01:30
I
11 °C 1,9 km - 240° 240° 2 kt METAR LFRI 182330Z AUTO 24002KT 8000 1900 NSC 11/11 Q1013
01:00
V
12 °C 10 km+ - 240° 240° 2 kt METAR LFRI 182300Z AUTO 24002KT CAVOK 12/11 Q1013
00:30
V
12 °C 10 km+ - 290° 290° 1 kt METAR LFRI 182230Z AUTO 29001KT CAVOK 12/11 Q1013
00:00
V
12 °C 10 km+ - 200° 200° 3 kt METAR LFRI 182200Z AUTO 20003KT CAVOK 12/11 Q1014

18 mei 2024

Tijd Code Weer Temp. Zicht Plafond Wind METAR/SPECI
23:30
V
13 °C 10 km+ - 270° 270° 2 kt METAR LFRI 182130Z AUTO 27002KT CAVOK 13/12 Q1014
23:00
V
13 °C 10 km+ - 300° 300° 3 kt METAR LFRI 182100Z AUTO 30003KT CAVOK 13/11 Q1013
22:30
V
13 °C 10 km+ - 270° 270° 3 kt METAR LFRI 182030Z AUTO 27003KT CAVOK 13/12 Q1013
22:00
V
14 °C 10 km+ - 250° 250° 3 kt METAR LFRI 182000Z AUTO 25003KT CAVOK 14/12 Q1013
21:30
V
15 °C 10 km+ - Var Var 3 kt METAR LFRI 181930Z AUTO VRB03KT CAVOK 15/12 Q1013
21:00
V
16 °C 10 km+ - 310° 310° 5 kt METAR LFRI 181900Z AUTO 31005KT CAVOK 16/12 Q1012
20:30
V
17 °C 10 km+ - 300° 300° 6 kt METAR LFRI 181830Z AUTO 30006KT CAVOK 17/12 Q1012
20:00
V
18 °C 10 km+ - 300° 300° 8 kt METAR LFRI 181800Z AUTO 30008KT CAVOK 18/13 Q1012
19:30
V
18 °C 10 km+ - 290° 290° 7 kt METAR LFRI 181730Z AUTO 29007KT 240V310 CAVOK 18/13 Q1012
19:00
V
18 °C 10 km+ - 290° 290° 8 kt METAR LFRI 181700Z AUTO 29008KT 250V320 CAVOK 18/13 Q1012 TEMPO 4000 SHRA SCT030CB
18:30
V
17 °C 10 km+ - 300° 300° 7 kt METAR LFRI 181630Z AUTO 30007KT 260V320 CAVOK 17/13 Q1012 TEMPO 4000 SHRA SCT030CB
18:00
V
18 °C 10 km+ - 240° 240° 5 kt METAR LFRI 181600Z AUTO 24005KT 210V280 CAVOK 18/13 Q1012 TEMPO 4000 SHRA SCT030CB
17:30
V
18 °C 10 km+ - Var Var 3 kt METAR LFRI 181530Z AUTO VRB03KT CAVOK 18/13 Q1012 TEMPO 4000 SHRA SCT030CB
17:00
V
15 °C 10 km+ - 220° 220° 6 kt METAR LFRI 181500Z AUTO 22006KT 190V260 9999 ///CB 15/11 Q1012 TEMPO 4000 SHRA
16:30
V
16 °C 10 km+ - 260° 260° 8 kt METAR LFRI 181430Z AUTO 26008KT 9999 -RA ///CB 16/12 Q1012 TEMPO 4000 SHRA
16:00
V
18 °C 10 km+ 8.400 ft 180° 180° 8 kt METAR LFRI 181400Z AUTO 18008KT 9999 FEW044/// OVC084/// ///CB 18/12 Q1012 TEMPO 4000 SHRA BECMG 26010KT
15:30
V
20 °C 10 km+ 8.800 ft Var Var 2 kt METAR LFRI 181330Z AUTO VRB02KT 9999 FEW047/// BKN088/// ///CB 20/09 Q1012 TEMPO 4000 SHRA
15:00
V
19 °C 10 km+ 7.400 ft Var Var 4 kt METAR LFRI 181300Z AUTO VRB04KT 9999 SCT039/// SCT058/// BKN074/// ///CB 19/10 Q1012 TEMPO 4000 SHRA
14:30
V
18 °C 10 km+ 3.900 ft 180° 180° 5 kt METAR LFRI 181230Z AUTO 18005KT 150V220 9999 BKN039 BKN050 OVC070 18/11 Q1012 TEMPO 4000 SHRA SCT030CB
14:00
V
19 °C 10 km+ 4.100 ft Var Var 2 kt METAR LFRI 181200Z AUTO VRB02KT 9999 BKN041 BKN048 OVC068 19/12 Q1012 TEMPO 4000 SHRA SCT030CB
13:30
V
19 °C 10 km+ - Var Var 4 kt METAR LFRI 181130Z AUTO VRB04KT 9999 FEW037 SCT070 19/11 Q1013 TEMPO 4000 SHRA SCT030CB
13:00
V
18 °C 10 km+ - 200° 200° 4 kt METAR LFRI 181100Z AUTO 20004KT 120V270 9999 FEW036 18/10 Q1013 TEMPO 4000 SHRA SCT030CB
12:30
V
18 °C 10 km+ 4.100 ft Var Var 3 kt METAR LFRI 181030Z AUTO VRB03KT 9999 FEW029 SCT035 BKN041 18/11 Q1013 TEMPO 4000 SHRA SCT030CB
12:00
V
17 °C 10 km+ - 180° 180° 3 kt METAR LFRI 181000Z AUTO 18003KT 100V230 9999 FEW029 17/10 Q1013 TEMPO 4000 SHRA SCT030CB
11:30
V
17 °C 10 km+ - Var Var 2 kt METAR LFRI 180930Z AUTO VRB02KT CAVOK 17/11 Q1013 TEMPO 4000 SHRA SCT030CB
11:00
V
17 °C 10 km+ - 130° 130° 4 kt METAR LFRI 180900Z AUTO 13004KT 060V190 9999 FEW022 17/11 Q1013 TEMPO 4000 SHRA SCT030CB
10:30
V
16 °C 10 km+ - 150° 150° 5 kt METAR LFRI 180830Z AUTO 15005KT 090V190 CAVOK 16/12 Q1012 TEMPO 4000 SHRA SCT030CB
10:00
V
15 °C 10 km+ - 120° 120° 5 kt METAR LFRI 180800Z AUTO 12005KT 080V160 9999 FEW016 SCT220 15/12 Q1012 NOSIG
09:30
V
15 °C 10 km+ - 110° 110° 5 kt METAR LFRI 180730Z AUTO 11005KT 070V160 CAVOK 15/12 Q1012 NOSIG
09:00
V
14 °C 10 km+ - 110° 110° 4 kt METAR LFRI 180700Z AUTO 11004KT CAVOK 14/12 Q1012 NOSIG
08:30
V
13 °C 10 km+ - 070° 070° 4 kt METAR LFRI 180630Z AUTO 07004KT CAVOK 13/12 Q1012 NOSIG
08:00
V
11 °C 8 km - 080° 080° 3 kt METAR LFRI 180600Z AUTO 08003KT 8000 NSC 11/11 Q1012 NOSIG
07:30
I
9 °C 1,5 km - 080° 080° 4 kt METAR LFRI 180530Z AUTO 08004KT 4600 1500 BR NSC 09/09 Q1012 BECMG 9999 NSW
07:00
L
8 °C 700 m - 080° 080° 4 kt METAR LFRI 180500Z AUTO 08004KT 0800 0700 R28/1300U FG NSC 08/08 Q1012
06:30
L
7 °C 250 m - 090° 090° 4 kt METAR LFRI 180430Z AUTO 09004KT 0350 0250 R28/0500D FG NSC 07/07 Q1011
06:00
L
7 °C 200 m - 080° 080° 4 kt METAR LFRI 180400Z AUTO 08004KT 0400 0200 R28/0900N FG NSC 07/07 Q1011
05:30
L
8 °C 150 m 10.000 ft 080° 080° 4 kt METAR LFRI 180330Z AUTO 08004KT 0300 0150 R28/0800U FG FEW001 BKN100 08/08 Q1011
05:00
L
7 °C 350 m - 110° 110° 3 kt METAR LFRI 180300Z AUTO 11003KT 0500 0350 R28/0700D FG NSC 07/07 Q1011
04:30
L
9 °C 1,1 km - 140° 140° 4 kt METAR LFRI 180230Z AUTO 14004KT 4800 1100 R28/1500D BR NSC 09/09 Q1011
04:00
V
9 °C 10 km+ - 140° 140° 4 kt METAR LFRI 180200Z AUTO 14004KT CAVOK 09/09 Q1011
03:30
L
8 °C 700 m - 100° 100° 4 kt METAR LFRI 180130Z AUTO 10004KT 0800 0700 R28/1200D FG NSC 08/08 Q1011
03:00
L
8 °C 400 m - 100° 100° 4 kt METAR LFRI 180100Z AUTO 10004KT 0800 0400 R28/1500D FG NSC 08/08 Q1011
02:30
L
8 °C 450 m - 090° 090° 4 kt METAR LFRI 180030Z AUTO 09004KT 0600 0450 R28/0900U FG NSC 08/08 Q1011
02:00
L
9 °C 250 m - 080° 080° 4 kt METAR LFRI 180000Z AUTO 08004KT 1000 0250 R28/P2000 BCFG NSC 09/09 Q1012
01:30
L
9 °C 150 m - 080° 080° 3 kt METAR LFRI 172330Z AUTO 08003KT 0600 0150 R28/1200U FG NSC 09/09 Q1012
01:00
L
8 °C 250 m - 080° 080° 4 kt METAR LFRI 172300Z AUTO 08004KT 0400 0250 R28/0800N FG NSC 08/08 Q1012
00:30
L
9 °C 450 m - 070° 070° 3 kt METAR LFRI 172230Z AUTO 07003KT 0800 0450 R28/0900D FG NSC 09/09 Q1012
00:00
L
10 °C 1,1 km - 090° 090° 3 kt METAR LFRI 172200Z AUTO 09003KT 2400 1100 R28/0750D BR NSC 10/09 Q1012

17 mei 2024

Tijd Code Weer Temp. Zicht Plafond Wind METAR/SPECI
23:30
L
10 °C 1,3 km - 090° 090° 3 kt METAR LFRI 172130Z AUTO 09003KT 1300 R28/1100U BR NSC 10/10 Q1012
23:00
I
10 °C 2,2 km - 090° 090° 3 kt METAR LFRI 172100Z AUTO 09003KT 9999 2200 NSC 10/10 Q1012
22:30
V
10 °C 10 km+ - 060° 060° 3 kt METAR LFRI 172030Z AUTO 06003KT CAVOK 10/10 Q1012
22:00
V
11 °C 10 km+ - 080° 080° 3 kt METAR LFRI 172000Z AUTO 08003KT CAVOK 11/11 Q1011
21:30
V
11 °C 10 km+ - 060° 060° 3 kt METAR LFRI 171930Z AUTO 06003KT CAVOK 11/10 Q1011
21:00
V
12 °C 10 km+ - Var Var 2 kt METAR LFRI 171900Z AUTO VRB02KT 9999 ///CB 12/10 Q1011
20:30
V
13 °C 10 km+ - Var Var 2 kt METAR LFRI 171830Z AUTO VRB02KT 9999 FEW027/// ///CB 13/11 Q1010
20:00
V
13 °C 10 km+ - 190° 190° 3 kt METAR LFRI 171800Z AUTO 19003KT 9999 ///CB 13/11 Q1010
19:30
V
14 °C 10 km+ - 200° 200° 3 kt METAR LFRI 171730Z AUTO 20003KT 170V230 9999 ///CB 14/10 Q1010
19:00
V
15 °C 10 km+ - 200° 200° 4 kt METAR LFRI 171700Z AUTO 20004KT 170V230 9999 ///CB 15/11 Q1010 TEMPO 3000 TSRA BECMG BKN017 BKN100
18:30
V
16 °C 10 km+ - 220° 220° 5 kt METAR LFRI 171630Z AUTO 22005KT 200V260 9999 ///CB 16/12 Q1010 TEMPO 3000 TSRA BECMG BKN017 BKN100
18:00
V
16 °C 10 km+ - 180° 180° 5 kt METAR LFRI 171600Z AUTO 18005KT 140V220 9999 FEW014/// ///CB 16/11 Q1010 TEMPO 3000 TSRA BKN013 BKN020CB
17:30
V
15 °C 10 km+ - 180° 180° 6 kt METAR LFRI 171530Z AUTO 18006KT 130V230 9999 FEW011/// SCT230/// ///CB 15/12 Q1010 TEMPO 3000 TSRA BKN013 BKN020CB
17:00
V
14 °C 10 km+ 6.800 ft 110° 110° 6 kt METAR LFRI 171500Z AUTO 11006KT 9999 FEW006/// BKN068/// BKN082/// ///TCU 14/13 Q1010 TEMPO 3000 TSRA BKN013 BKN020CB
16:30
V
13 °C 10 km+ - 110° 110° 5 kt METAR LFRI 171430Z AUTO 11005KT 9999 -RA ///CB 13/12 Q1010 TEMPO 3000 TSRA BKN013 BKN020CB
16:00
V
12 °C 10 km+ - 130° 130° 5 kt METAR LFRI 171400Z AUTO 13005KT 9999 RA ///CB 12/11 Q1010 TEMPO 3000 TSRA BKN013 BKN020CB
15:30
V
12 °C 10 km+ - 130° 130° 5 kt METAR LFRI 171330Z AUTO 13005KT 9999 -RA ///CB 12/11 Q1010 TEMPO 3000 SHRA BKN013 BKN020CB
15:00
V
13 °C 10 km+ - 160° 160° 5 kt METAR LFRI 171300Z AUTO 16005KT 130V190 9999 -RA VCTS ///CB 13/11 Q1010 TEMPO 3000 SHRA BKN013 BKN020CB
14:30
V
14 °C 10 km+ - 180° 180° 8 kt METAR LFRI 171230Z AUTO 18008KT 9999 -RA ///CB 14/11 Q1010 TEMPO 3000 SHRA BKN013 BKN020CB
14:00
V
15 °C 10 km+ 4.700 ft 190° 190° 9 kt METAR LFRI 171200Z AUTO 19009KT 9999 FEW021/// BKN047/// OVC054/// ///CB 15/11 Q1010 TEMPO 3000 SHRA BKN013 BKN020CB
13:30
M
15 °C 10 km+ 1.900 ft 180° 180° 6 kt METAR LFRI 171130Z AUTO 18006KT 130V210 9999 BKN019/// BKN024/// BKN031/// ///CB 15/12 Q1010 TEMPO 3000 SHRA BKN013 BKN020CB
13:00
M
16 °C 10 km+ 1.700 ft 190° 190° 7 kt METAR LFRI 171100Z AUTO 19007KT 160V220 9999 BKN017 BKN022 BKN032 16/12 Q1010 TEMPO 3000 SHRA BKN013 BKN020CB
12:30
M
15 °C 10 km+ 1.700 ft 180° 180° 8 kt METAR LFRI 171030Z AUTO 18008KT 9999 BKN017 BKN041 BKN054 15/12 Q1010 TEMPO 3000 SHRA BKN013 BKN020CB
12:00
V
15 °C 10 km+ 5.400 ft 180° 180° 8 kt METAR LFRI 171000Z AUTO 18008KT 9999 FEW009/// SCT014/// BKN054/// ///TCU 15/13 Q1009 TEMPO 3000 SHRA BKN013 BKN020CB
11:30
V
13 °C 10 km+ 4.300 ft 180° 180° 4 kt METAR LFRI 170930Z AUTO 18004KT 140V250 9999 FEW011/// SCT026/// OVC043/// ///TCU 13/12 Q1009 TEMPO 3000 SHRA BKN013 BKN020CB
11:00
I
13 °C 4,3 km 1.300 ft 180° 180° 6 kt METAR LFRI 170900Z AUTO 18006KT 140V210 4300 -RA BR SCT008/// BKN013/// BKN020/// ///TCU 13/12 Q1009 TEMPO SHRA BKN013 BKN020CB
10:30
M
14 °C 10 km+ 1.200 ft 170° 170° 8 kt METAR LFRI 170830Z AUTO 17008KT 120V190 9999 BKN012/// BKN020/// BKN035/// ///TCU 14/12 Q1009 TEMPO 3000 SHRA BKN013 BKN020CB
10:00
I
14 °C 10 km+ 900 ft 180° 180° 8 kt METAR LFRI 170800Z AUTO 18008KT 150V210 9999 BKN009/// BKN022/// BKN039/// ///CB 14/13 Q1009 TEMPO 3000 SHRA BKN013 BKN020CB
09:30
V
12 °C 10 km+ 4.400 ft 160° 160° 6 kt METAR LFRI 170730Z AUTO 16006KT 9999 -RA SCT014/// SCT031/// BKN044/// ///CB 12/12 Q1009 TEMPO 3000 SHRA BKN013 BKN020CB
09:00
I
12 °C 3,8 km 3.100 ft 160° 160° 7 kt METAR LFRI 170700Z AUTO 16007KT 140V200 3800 RA BR FEW004/// BKN031/// BKN041/// ///CB 12/11 Q1008 TEMPO BKN013 BKN020CB
08:30
V
11 °C 10 km+ 5.800 ft 140° 140° 5 kt METAR LFRI 170630Z AUTO 14005KT 9999 -RA FEW003/// OVC058/// ///CB 11/11 Q1008 TEMPO 3000 SHRA BKN013 BKN020CB
08:00
M
11 °C 9 km 1.000 ft 130° 130° 5 kt METAR LFRI 170600Z AUTO 13005KT 9000 -RA FEW004/// BKN010/// BKN026/// ///CB 11/11 Q1008 TEMPO 3000 SHRA
07:30
M
11 °C 10 km+ 1.600 ft 130° 130° 5 kt METAR LFRI 170530Z AUTO 13005KT 110V170 9999 -DZ SCT010/// BKN016/// BKN031/// ///CB 11/11 Q1008 TEMPO 3000 SHRA BKN013 BKN020CB
07:00
M
11 °C 5 km 1.100 ft 130° 130° 6 kt METAR LFRI 170500Z AUTO 13006KT 090V150 5000 -RA BR FEW003/// BKN011/// BKN019/// ///CB 11/11 Q1008
06:30
V
11 °C 10 km+ 8.600 ft 110° 110° 4 kt METAR LFRI 170430Z AUTO 11004KT 9999 SCT019/// SCT048/// BKN086/// ///TCU 11/11 Q1008
06:00
V
11 °C 10 km+ 12.000 ft 120° 120° 4 kt METAR LFRI 170400Z AUTO 12004KT 9999 FEW016/// BKN120/// BKN170/// ///TCU 11/11 Q1007
05:30
M
11 °C 10 km+ 2.300 ft 140° 140° 3 kt METAR LFRI 170330Z AUTO 14003KT 9999 SCT016 BKN023 BKN029 11/11 Q1007
05:00
V
11 °C 10 km+ 14.000 ft 160° 160° 4 kt METAR LFRI 170300Z AUTO 16004KT 9999 SCT013/// SCT037/// BKN140/// ///TCU 11/11 Q1007
04:30
M
11 °C 10 km+ 1.400 ft 140° 140° 3 kt METAR LFRI 170230Z AUTO 14003KT 9999 BKN014/// BKN072/// BKN094/// ///TCU 11/11 Q1007
04:00
V
11 °C 10 km+ - 170° 170° 3 kt METAR LFRI 170200Z AUTO 17003KT 9999 ///TCU 11/10 Q1007
03:30
V
11 °C 10 km+ 10.000 ft 200° 200° 6 kt METAR LFRI 170130Z AUTO 20006KT 9999 FEW011/// BKN100/// BKN130/// ///TCU 11/11 Q1007
03:00
V
11 °C 10 km+ 5.400 ft 180° 180° 5 kt METAR LFRI 170100Z AUTO 18005KT 9999 FEW009/// BKN054/// BKN064/// ///TCU 11/11 Q1007
02:30
M
11 °C 10 km+ 1.800 ft 170° 170° 6 kt METAR LFRI 170030Z AUTO 17006KT 9999 SCT011/// BKN018/// BKN062/// ///CB 11/11 Q1007
02:00
V
11 °C 10 km+ 4.300 ft 160° 160° 5 kt METAR LFRI 170000Z AUTO 16005KT 130V190 9999 SCT014 BKN043 BKN170 11/10 Q1007
01:30
V
10 °C 10 km+ - 160° 160° 5 kt METAR LFRI 162330Z AUTO 16005KT 9999 FEW017 10/10 Q1007
01:00
V
11 °C 10 km+ - 150° 150° 4 kt METAR LFRI 162300Z AUTO 15004KT 9999 FEW016 11/10 Q1007
00:30
V
11 °C 10 km+ - 140° 140° 4 kt METAR LFRI 162230Z AUTO 14004KT 9999 FEW016 11/10 Q1007
00:00
V
11 °C 10 km+ - 160° 160° 4 kt METAR LFRI 162200Z AUTO 16004KT 9999 FEW014 11/11 Q1007

16 mei 2024

Tijd Code Weer Temp. Zicht Plafond Wind METAR/SPECI
23:30
V
11 °C 10 km+ - 170° 170° 3 kt METAR LFRI 162130Z AUTO 17003KT 9999 FEW013/// ///TCU 11/11 Q1007
23:00
M
12 °C 10 km+ 2.700 ft 190° 190° 7 kt METAR LFRI 162100Z AUTO 19007KT 9999 SCT016/// BKN027/// BKN043/// ///TCU 12/11 Q1007 BECMG SCT025 BKN050
22:30
V
12 °C 10 km+ 6.600 ft 160° 160° 5 kt METAR LFRI 162030Z AUTO 16005KT 9999 FEW017/// SCT038/// BKN066/// ///TCU 12/12 Q1007 BECMG SCT025 BKN050
22:00
V
12 °C 10 km+ 7.000 ft 170° 170° 6 kt METAR LFRI 162000Z AUTO 17006KT 9999 FEW011/// SCT017/// BKN070/// ///TCU 12/11 Q1006 BECMG SCT025 BKN050
21:30
M
13 °C 10 km+ 1.800 ft 180° 180° 6 kt METAR LFRI 161930Z AUTO 18006KT 9999 SCT013/// BKN018/// BKN040/// ///TCU 13/11 Q1006 BECMG SCT025 BKN050
21:00
V
13 °C 10 km+ 5.400 ft 190° 190° 6 kt METAR LFRI 161900Z AUTO 19006KT 9999 FEW015/// BKN054/// ///TCU 13/11 Q1006 TEMPO 3000 SHRA BKN008 BKN040CB
20:30
M
13 °C 10 km+ 1.100 ft 190° 190° 7 kt METAR LFRI 161830Z AUTO 19007KT 160V220 9999 BKN011 BKN019 BKN029 13/12 Q1006 TEMPO 3000 SHRA BKN008 BKN040CB
20:00
I
13 °C 1,9 km 1.800 ft 180° 180° 10 kt METAR LFRI 161800Z AUTO 18010KT 150V220 5000 1900 RA BR FEW013 BKN018 BKN025 13/12 Q1006 TEMPO BKN008 BKN040CB
19:30
V
14 °C 10 km+ 5.000 ft 200° 200° 10 kt METAR LFRI 161730Z AUTO 20010KT 170V230 9999 FEW025 SCT041 BKN050 14/11 Q1005 TEMPO 3000 SHRA BKN008 BKN040CB
19:00
M
15 °C 10 km+ 2.300 ft 200° 200° 11 kt METAR LFRI 161700Z AUTO 20011KT 160V230 9999 BKN023 BKN034 BKN050 15/11 Q1005 TEMPO 3000 SHRA BKN008 BKN040CB
18:30
M
16 °C 10 km+ 2.800 ft 190° 190° 12 kt METAR LFRI 161630Z AUTO 19012KT 9999 SCT022 BKN028 BKN035 16/11 Q1005 TEMPO 3000 SHRA BKN008 BKN040CB
18:00
M
15 °C 10 km+ 2.700 ft 200° 200° 12 kt METAR LFRI 161600Z AUTO 20012KT 170V230 9999 SCT022/// BKN027/// BKN052/// ///TCU 15/11 Q1005 TEMPO 3000 SHRA BKN008 BKN040CB
17:30
M
16 °C 10 km+ 2.400 ft 220° 220° 14 kt METAR LFRI 161530Z AUTO 22014KT 180V250 9999 FEW019/// BKN024/// BKN048/// ///CB 16/11 Q1005 TEMPO 3000 SHRA BKN008 BKN040CB
17:00
V
15 °C 10 km+ 4.700 ft 210° 210° 12 kt METAR LFRI 161500Z AUTO 21012KT 180V250 9999 FEW016/// BKN047/// BKN130/// ///TCU 15/12 Q1005 TEMPO 3000 SHRA BKN008 BKN040CB
16:30
V
14 °C 10 km+ 9.400 ft 220° 220° 8 kt METAR LFRI 161430Z AUTO 22008KT 180V250 9999 FEW020/// SCT074/// BKN094/// ///TCU 14/11 Q1005 TEMPO 3000 SHRA BKN008 BKN040CB
16:00
M
14 °C 10 km+ 1.500 ft 220° 220° 11 kt METAR LFRI 161400Z AUTO 22011KT 180V250 9999 BKN015/// BKN031/// BKN045/// ///CB 14/11 Q1005 TEMPO 3000 SHRA BKN008 BKN040CB
15:30
M
14 °C 10 km+ 1.400 ft 210° 210° 10 kt METAR LFRI 161330Z AUTO 21010KT 190V250 9999 BKN014/// BKN030/// OVC060/// ///TCU 14/11 Q1005 TEMPO 3000 SHRA BKN008 BKN040CB
15:00
M
14 °C 10 km+ 2.000 ft 190° 190° 11 - 22 kt METAR LFRI 161300Z AUTO 19011G22KT 160V230 9999 SCT015/// BKN020/// BKN028/// ///TCU 14/12 Q1005 TEMPO 3000 SHRA BKN008 BKN040CB
14:30
V
15 °C 10 km+ 5.600 ft 200° 200° 15 kt METAR LFRI 161230Z AUTO 20015KT 9999 SCT022/// SCT044/// BKN056/// ///TCU 15/11 Q1005 TEMPO 3000 SHRA BKN008 BKN040CB
14:00
M
15 °C 10 km+ 3.000 ft 190° 190° 12 kt METAR LFRI 161200Z AUTO 19012KT 9999 SCT021/// BKN030/// BKN043/// ///TCU 15/13 Q1005 TEMPO 3000 SHRA BKN008 BKN040CB
13:30
M
14 °C 10 km+ 1.500 ft 190° 190° 14 kt METAR LFRI 161130Z AUTO 19014KT 9999 BKN015/// OVC046/// ///CB 14/12 Q1005 TEMPO 3000 SHRA BKN008 BKN040CB
13:00
M
15 °C 10 km+ 1.400 ft 190° 190° 13 kt METAR LFRI 161100Z AUTO 19013KT 9999 BKN014/// BKN020/// ///CB 15/13 Q1005 TEMPO 3000 SHRA BKN008 BKN040CB
12:30
M
13 °C 10 km+ 1.800 ft 180° 180° 12 kt METAR LFRI 161030Z AUTO 18012KT 150V210 9999 SCT011/// BKN018/// BKN028/// ///CB 13/11 Q1005 TEMPO 3000 SHRA BKN008 BKN040CB
12:00
M
13 °C 10 km+ 1.000 ft 190° 190° 11 kt METAR LFRI 161000Z AUTO 19011KT 9999 -RA BKN010/// BKN034/// BKN054/// ///CB 13/12 Q1005 TEMPO 3000 SHRA
11:30
M
14 °C 10 km+ 1.000 ft 190° 190° 9 kt METAR LFRI 160930Z AUTO 19009KT 150V210 9999 OVC010/// ///CB 14/12 Q1005 TEMPO 3000 SHRA
11:00
M
12 °C 10 km+ 1.000 ft 190° 190° 10 kt METAR LFRI 160900Z AUTO 19010KT 150V210 9999 BKN010/// BKN015/// OVC064/// ///CB 12/11 Q1005 TEMPO 3000 SHRA
10:30
M
13 °C 10 km+ 1.000 ft 190° 190° 10 kt METAR LFRI 160830Z AUTO 19010KT 9999 -RA BKN010/// BKN015/// OVC030/// ///CB 13/12 Q1005 TEMPO 3000 SHRA
10:00
M
13 °C 10 km+ 1.100 ft 190° 190° 9 kt METAR LFRI 160800Z AUTO 19009KT 9999 -RA BKN011/// BKN033/// BKN052/// ///CB 13/12 Q1005 TEMPO 3000 SHRA BKN008 BKN040CB
09:30
M
12 °C 10 km+ 1.000 ft 180° 180° 6 kt METAR LFRI 160730Z AUTO 18006KT 9999 -RA BKN010/// BKN015/// OVC024/// ///CB 12/11 Q1005 TEMPO 3000 SHRA
09:00
I
12 °C 10 km+ 900 ft 180° 180° 7 kt METAR LFRI 160700Z AUTO 18007KT 9999 BKN009/// BKN018/// OVC036/// ///TCU 12/11 Q1005 TEMPO 3000 SHRA SCT012 BKN040CB
08:30
M
12 °C 10 km+ 1.500 ft 180° 180° 8 kt METAR LFRI 160630Z AUTO 18008KT 9999 -RADZ SCT009/// BKN015/// BKN035/// ///TCU 12/11 Q1005 TEMPO 3000 SHRA SCT012 BKN040CB
08:00
M
12 °C 10 km+ 1.500 ft 170° 170° 9 kt METAR LFRI 160600Z AUTO 17009KT 150V210 9999 -RADZ FEW008/// BKN015/// BKN026/// ///TCU 12/11 Q1005 TEMPO 3000 SHRA SCT012 BKN040CB
Wijziging doorgeven